Time;durP1;ratioP1;P1;durP2;ratioP2;P2;SDS_P1;SDS_P2;PMS_P1;PMS_P2;Temp;Humidity;BMP_temperature;BMP_pressure;BME280_temperature;BME280_humidity;BME280_pressure;Samples;Min_cycle;Max_cycle;Signal;HPM_P1;HPM_P2
2021/09/15 00:00:35;;;;;;;41.97;31.58;;;17.80;99.90;;;;;;6156845;23;20243;-91
2021/09/15 00:03:57;;;;;;;44.60;35.08;;;17.80;99.90;;;;;;6129468;23;20021;-91
2021/09/15 00:06:49;;;;;;;44.92;34.92;;;17.70;99.90;;;;;;6179888;23;20017;-92
2021/09/15 00:09:31;;;;;;;43.70;35.27;;;17.80;99.90;;;;;;6154813;23;20032;-92
2021/09/15 00:12:00;;;;;;;40.88;32.75;;;17.80;99.90;;;;;;6157762;23;20020;-92
2021/09/15 00:14:33;;;;;;;43.10;33.17;;;17.70;99.90;;;;;;6157042;23;20012;-92
2021/09/15 00:17:20;;;;;;;40.20;32.22;;;17.80;99.90;;;;;;6156253;23;20019;-91
2021/09/15 00:20:17;;;;;;;35.88;31.20;;;17.80;99.90;;;;;;6157104;23;20080;-92
2021/09/15 00:23:28;;;;;;;;;;;;;;;;;;;;;
2021/09/15 00:26:15;;;;;;;41.22;30.20;;;17.70;99.90;;;;;;6249460;22;20012;-91
2021/09/15 00:29:00;;;;;;;41.40;33.45;;;17.80;99.90;;;;;;6245205;22;20019;-92
2021/09/15 00:31:26;;;;;;;34.45;30.48;;;17.80;99.90;;;;;;6243503;22;20015;-92
2021/09/15 00:33:52;;;;;;;35.38;30.70;;;17.80;99.90;;;;;;6219767;22;20019;-92
2021/09/15 00:36:23;;;;;;;38.85;30.13;;;17.90;99.90;;;;;;6244913;22;20098;-92
2021/09/15 00:38:57;;;;;;;38.83;31.63;;;17.90;99.90;;;;;;6245277;22;20099;-92
2021/09/15 00:41:23;;;;;;;35.05;31.20;;;17.90;99.90;;;;;;6243410;22;20011;-91
2021/09/15 00:44:01;;;;;;;35.08;31.27;;;18.00;99.90;;;;;;6244059;22;20021;-92
2021/09/15 00:46:47;;;;;;;38.80;31.10;;;18.00;99.90;;;;;;6244673;22;20020;-92
2021/09/15 00:49:16;;;;;;;39.28;32.03;;;18.00;99.90;;;;;;6269256;22;20011;-92
2021/09/15 00:52:14;;;;;;;36.13;31.48;;;18.10;99.90;;;;;;6270090;22;20016;-92
2021/09/15 00:54:40;;;;;;;41.45;32.65;;;18.10;99.90;;;;;;6220396;22;20016;-92
2021/09/15 00:57:39;;;;;;;;;;;;;;;;;;;;;
2021/09/15 01:00:42;;;;;;;37.60;32.35;;;18.10;99.90;;;;;;6268556;22;20034;-92
2021/09/15 01:03:37;;;;;;;40.65;33.53;;;18.10;99.90;;;;;;6271188;22;20026;-92
2021/09/15 01:06:31;;;;;;;;;;;;;;;;;;;;;
2021/09/15 01:09:06;;;;;;;41.38;33.25;;;18.10;99.90;;;;;;6256669;22;20043;-92
2021/09/15 01:11:37;;;;;;;37.95;33.58;;;18.10;99.90;;;;;;6220905;22;20051;-92
2021/09/15 01:14:17;;;;;;;;;;;;;;;;;;;;;
2021/09/15 01:16:55;;;;;;;46.00;34.35;;;18.10;99.90;;;;;;6269351;22;20011;-92
2021/09/15 01:19:24;;;;;;;41.83;33.83;;;18.10;99.90;;;;;;6246763;22;20018;-92
2021/09/15 01:22:18;;;;;;;41.53;34.15;;;18.10;99.90;;;;;;6247888;22;20092;-91
2021/09/15 01:24:54;;;;;;;;;;;;;;;;;;;;;
2021/09/15 01:27:43;;;;;;;43.90;36.13;;;18.10;99.90;;;;;;6247231;22;20023;-91
2021/09/15 01:30:46;;;;;;;42.13;34.58;;;18.10;99.90;;;;;;6245289;22;20361;-91
2021/09/15 01:33:40;;;;;;;44.30;36.05;;;18.00;99.90;;;;;;6246877;22;20008;-92
2021/09/15 01:36:14;;;;;;;45.80;35.10;;;18.00;99.90;;;;;;6271440;22;20034;-92
2021/09/15 01:38:50;;;;;;;45.15;35.90;;;18.00;99.90;;;;;;6245126;22;20016;-91
2021/09/15 01:41:22;;;;;;;44.03;36.15;;;18.00;99.90;;;;;;6221434;22;20019;-92
2021/09/15 01:44:26;;;;;;;;;;;;;;;;;;;;;
2021/09/15 01:50:44;;;;;;;45.90;35.45;;;17.90;99.90;;;;;;6251413;22;20099;-92
2021/09/15 01:53:12;;;;;;;44.92;35.55;;;17.90;99.90;;;;;;6221089;22;20034;-92
2021/09/15 01:56:27;;;;;;;42.50;34.90;;;17.90;99.90;;;;;;6213274;23;20456;-91
2021/09/15 01:59:03;;;;;;;;;;;;;;;;;;;;;
2021/09/15 02:02:04;;;;;;;45.50;36.47;;;17.90;99.90;;;;;;6249925;22;20045;-93
2021/09/15 02:04:38;;;;;;;45.13;36.35;;;17.90;99.90;;;;;;6258293;22;20059;-91
2021/09/15 02:07:14;;;;;;;47.60;35.80;;;17.90;99.90;;;;;;6221711;22;20515;-91
2021/09/15 02:09:40;;;;;;;48.30;37.55;;;17.80;99.90;;;;;;6243796;22;20050;-92
2021/09/15 02:12:09;;;;;;;45.88;37.25;;;17.80;99.90;;;;;;6245445;22;20019;-91
2021/09/15 02:14:35;;;;;;;47.65;37.17;;;17.80;99.90;;;;;;6243517;22;20408;-92
2021/09/15 02:17:01;;;;;;;46.30;37.40;;;17.80;99.90;;;;;;6245878;22;20015;-92
2021/09/15 02:19:26;;;;;;;51.53;37.03;;;17.80;99.90;;;;;;6244630;22;20054;-91
2021/09/15 02:22:22;;;;;;;49.17;38.45;;;17.80;99.90;;;;;;6218803;22;20018;-91
2021/09/15 02:25:06;;;;;;;;;;;;;;;;;;;;;
2021/09/15 02:27:35;;;;;;;48.00;37.90;;;17.80;99.90;;;;;;6270687;22;20020;-92
2021/09/15 02:30:11;;;;;;;47.22;38.58;;;17.80;99.90;;;;;;6244217;22;20087;-93
2021/09/15 02:33:02;;;;;;;;;;;17.80;99.90;;;;;;6219663;22;20011;-92
2021/09/15 02:39:08;;;;;;;50.20;38.20;;;17.80;99.90;;;;;;6250346;22;20026;-92
2021/09/15 02:41:53;;;;;;;48.47;38.10;;;17.80;99.90;;;;;;6249683;22;20059;-92
2021/09/15 02:44:18;;;;;;;47.42;38.83;;;17.90;99.90;;;;;;6244796;22;20011;-92
2021/09/15 02:47:21;;;;;;;49.08;38.30;;;17.90;99.90;;;;;;6244554;22;20012;-93
2021/09/15 02:50:08;;;;;;;54.53;39.75;;;17.90;99.90;;;;;;6256888;22;20019;-92
2021/09/15 02:52:34;;;;;;;51.67;40.15;;;17.90;99.90;;;;;;6244858;22;20064;-92
2021/09/15 02:55:09;;;;;;;47.60;38.90;;;18.00;99.90;;;;;;6244702;22;20098;-91
2021/09/15 02:57:35;;;;;;;48.92;39.25;;;18.00;99.90;;;;;;6245601;22;20537;-91
2021/09/15 03:00:00;;;;;;;48.05;37.05;;;18.00;99.90;;;;;;6219465;22;20027;-92
2021/09/15 03:02:26;;;;;;;51.05;39.33;;;18.00;99.90;;;;;;6245295;22;20027;-91
2021/09/15 03:04:58;;;;;;;46.45;37.85;;;18.00;99.90;;;;;;6245518;22;20384;-92
2021/09/15 03:07:41;;;;;;;44.38;37.60;;;18.00;99.90;;;;;;6213319;22;20055;-91
2021/09/15 03:10:27;;;;;;;48.88;38.70;;;18.00;99.90;;;;;;6244663;22;20020;-92
2021/09/15 03:13:21;;;;;;;50.10;37.15;;;18.00;99.90;;;;;;6244596;22;20015;-91
2021/09/15 03:15:52;;;;;;;52.50;38.72;;;18.00;99.90;;;;;;6245275;22;20077;-92
2021/09/15 03:22:07;;;;;;;;;;;17.90;99.90;;;;;;6270586;22;20373;-92
2021/09/15 03:24:42;;;;;;;53.30;37.22;;;17.90;99.90;;;;;;6243963;22;19911;-92
2021/09/15 03:27:11;;;;;;;51.17;38.47;;;17.90;99.90;;;;;;6222834;22;20047;-92
2021/09/15 03:29:43;;;;;;;55.60;38.90;;;17.90;99.90;;;;;;6244228;22;20022;-93
2021/09/15 03:32:15;;;;;;;49.28;37.65;;;17.90;99.90;;;;;;6219765;22;20345;-91
2021/09/15 03:34:44;;;;;;;50.88;39.25;;;17.90;99.90;;;;;;6220084;22;20477;-91
2021/09/15 03:37:10;;;;;;;52.08;38.05;;;17.90;99.90;;;;;;6241047;22;20023;-92
2021/09/15 03:46:37;;;;;;;50.50;38.72;;;17.80;99.90;;;;;;6160861;23;20023;-92
2021/09/15 03:49:12;;;;;;;47.42;37.88;;;17.80;99.90;;;;;;6158386;23;20308;-92
2021/09/15 03:52:01;;;;;;;55.08;38.63;;;17.80;99.90;;;;;;6155705;23;20012;-92
2021/09/15 03:57:30;;;;;;;56.90;40.33;;;17.70;99.90;;;;;;6182198;23;20078;-92
2021/09/15 04:00:32;;;;;;;;;;;;;;;;;;;;;
2021/09/15 07:48:28;;;;;;;105.65;57.75;;;18.50;99.90;;;;;;6335116;22;20025;-92
2021/09/15 07:51:00;;;;;;;112.05;59.42;;;18.50;99.90;;;;;;6281818;22;20040;-92
2021/09/15 07:53:26;;;;;;;117.43;60.65;;;18.60;99.90;;;;;;6306853;22;20021;-92
2021/09/15 07:55:51;;;;;;;105.30;58.80;;;18.60;99.90;;;;;;6256039;22;20011;-92
2021/09/15 07:58:17;;;;;;;108.38;57.75;;;18.60;99.90;;;;;;6281353;22;20011;-92
2021/09/15 08:00:49;;;;;;;109.30;59.22;;;18.60;99.90;;;;;;6281969;22;20037;-92
2021/09/15 08:03:17;;;;;;;112.18;60.90;;;18.70;99.90;;;;;;6256575;22;20040;-93
2021/09/15 08:05:43;;;;;;;114.05;61.40;;;18.70;99.90;;;;;;6282683;22;20050;-93
2021/09/15 08:08:12;;;;;;;112.75;61.58;;;18.70;99.90;;;;;;6256739;22;20014;-93
2021/09/15 08:10:51;;;;;;;110.80;59.30;;;18.70;99.90;;;;;;6307374;22;20007;-92
2021/09/15 08:13:20;;;;;;;109.93;60.30;;;18.70;99.90;;;;;;6307905;22;20026;-92
2021/09/15 08:15:48;;;;;;;111.03;60.25;;;18.70;99.90;;;;;;6307913;22;20079;-93
2021/09/15 08:18:17;;;;;;;101.57;56.92;;;18.70;99.90;;;;;;6282345;22;20210;-92
2021/09/15 08:20:46;;;;;;;100.65;55.47;;;18.70;99.90;;;;;;6307276;22;20011;-92
2021/09/15 08:23:17;;;;;;;94.72;56.28;;;18.70;99.90;;;;;;6282722;22;20071;-92
2021/09/15 08:25:55;;;;;;;94.18;55.33;;;18.70;99.90;;;;;;6283417;22;20467;-93
2021/09/15 08:28:22;;;;;;;91.72;54.47;;;18.80;99.90;;;;;;6283006;22;20010;-92
2021/09/15 08:31:04;;;;;;;87.63;51.97;;;18.70;99.90;;;;;;6283392;22;20351;-92
2021/09/15 08:34:11;;;;;;;95.97;53.90;;;18.80;99.90;;;;;;6289911;22;20017;-92
2021/09/15 08:36:37;;;;;;;89.55;52.85;;;18.80;99.90;;;;;;6284023;22;20332;-92
2021/09/15 08:39:03;;;;;;;94.68;54.30;;;18.90;99.90;;;;;;6307119;22;20097;-92
2021/09/15 08:41:30;;;;;;;92.18;53.55;;;18.90;99.90;;;;;;6307654;22;20564;-93
2021/09/15 08:43:56;;;;;;;87.13;53.28;;;18.90;99.90;;;;;;6307668;22;20038;-92
2021/09/15 08:46:24;;;;;;;82.88;50.95;;;18.90;99.90;;;;;;6307048;22;21697;-92
2021/09/15 08:48:55;;;;;;;86.00;50.38;;;18.90;99.90;;;;;;6307569;22;20007;-93
2021/09/15 08:51:27;;;;;;;72.63;45.03;;;19.00;99.90;;;;;;6309192;22;20081;-94
2021/09/15 08:53:54;;;;;;;75.50;47.97;;;19.00;99.90;;;;;;6308137;22;20042;-94
2021/09/15 08:56:25;;;;;;;69.57;44.63;;;19.00;99.90;;;;;;6308085;22;20093;-94
2021/09/15 08:59:03;;;;;;;67.00;44.43;;;19.10;99.90;;;;;;6281834;22;20010;-93
2021/09/15 09:01:39;;;;;;;64.22;42.47;;;19.10;99.90;;;;;;6307637;22;20068;-93
2021/09/15 09:04:16;;;;;;;62.90;41.45;;;19.10;99.90;;;;;;6309227;22;20030;-94
2021/09/15 09:06:48;;;;;;;63.92;39.85;;;19.10;99.90;;;;;;6308453;22;20014;-93
2021/09/15 09:09:14;;;;;;;57.85;39.75;;;19.10;99.90;;;;;;6256159;22;20011;-94
2021/09/15 09:11:41;;;;;;;60.85;40.13;;;19.20;99.90;;;;;;6307443;22;20067;-94
2021/09/15 09:14:15;;;;;;;61.03;39.75;;;19.20;99.90;;;;;;6285544;22;20071;-93
2021/09/15 09:16:49;;;;;;;60.40;40.63;;;19.20;99.90;;;;;;6281600;22;20046;-94
2021/09/15 09:19:35;;;;;;;67.47;40.55;;;19.20;99.90;;;;;;6307085;22;20125;-94
2021/09/15 09:22:07;;;;;;;65.35;40.78;;;19.20;99.90;;;;;;6283917;22;20007;-92
2021/09/15 09:24:54;;;;;;;61.47;40.45;;;19.30;99.90;;;;;;6285579;22;20086;-93
2021/09/15 09:27:28;;;;;;;59.63;39.05;;;19.30;99.90;;;;;;6310694;22;20007;-94
2021/09/15 09:30:33;;;;;;;58.40;39.42;;;19.30;99.90;;;;;;6283286;22;20091;-94
2021/09/15 09:33:17;;;;;;;61.95;40.05;;;19.30;99.90;;;;;;6308991;22;20391;-93
2021/09/15 09:35:58;;;;;;;58.97;39.22;;;19.40;99.90;;;;;;6325199;22;20029;-94
2021/09/15 09:38:39;;;;;;;56.17;37.88;;;19.40;99.90;;;;;;6338421;22;20002;-94
2021/09/15 09:41:13;;;;;;;51.50;35.35;;;19.50;99.90;;;;;;6338671;22;20030;-94
2021/09/15 09:43:44;;;;;;;57.47;37.25;;;19.50;99.90;;;;;;6331665;22;20015;-94
2021/09/15 09:46:21;;;;;;;52.57;37.50;;;19.50;99.90;;;;;;6308967;22;20010;-94
2021/09/15 09:48:48;;;;;;;55.53;38.30;;;19.50;99.90;;;;;;6308254;22;20014;-94
2021/09/15 09:51:26;;;;;;;55.72;37.20;;;19.60;99.90;;;;;;6309239;22;20095;-93
2021/09/15 09:54:10;;;;;;;48.13;35.10;;;19.60;99.90;;;;;;6308819;22;20015;-94
2021/09/15 09:56:40;;;;;;;50.70;34.25;;;19.60;99.90;;;;;;6309005;22;20021;-93
2021/09/15 09:59:06;;;;;;;49.00;33.40;;;19.60;99.90;;;;;;6308940;22;20356;-94
2021/09/15 10:01:38;;;;;;;51.15;35.25;;;19.60;99.90;;;;;;6308485;22;20299;-93
2021/09/15 10:04:04;;;;;;;50.40;34.90;;;19.60;99.90;;;;;;6309104;22;20007;-94
2021/09/15 10:06:33;;;;;;;48.38;33.88;;;19.70;99.90;;;;;;6283799;22;20011;-93
2021/09/15 10:09:36;;;;;;;52.72;33.00;;;19.70;99.90;;;;;;6308026;22;20010;-93
2021/09/15 10:12:06;;;;;;;50.78;33.83;;;19.70;99.90;;;;;;6308761;22;20017;-94
2021/09/15 10:15:01;;;;;;;46.95;32.90;;;19.70;99.90;;;;;;6308756;22;20491;-93
2021/09/15 10:17:36;;;;;;;47.00;31.63;;;19.70;99.90;;;;;;6285378;22;20457;-93
2021/09/15 10:20:15;;;;;;;47.75;32.28;;;19.80;99.90;;;;;;6309571;22;20007;-93
2021/09/15 10:22:48;;;;;;;40.75;28.73;;;19.70;99.90;;;;;;6309869;22;20486;-93
2021/09/15 10:25:20;;;;;;;36.70;27.13;;;19.80;99.90;;;;;;6308902;22;20451;-95
2021/09/15 10:28:08;;;;;;;37.15;26.00;;;19.80;99.90;;;;;;6309118;22;20081;-93
2021/09/15 10:30:58;;;;;;;43.47;27.08;;;19.80;99.90;;;;;;6310070;22;20018;-94
2021/09/15 10:33:51;;;;;;;43.78;29.50;;;19.80;99.90;;;;;;6283879;22;20011;-94
2021/09/15 10:37:04;;;;;;;37.17;28.20;;;19.90;99.90;;;;;;6291231;22;20135;-93
2021/09/15 10:42:38;;;;;;;;;;;19.90;99.90;;;;;;6334846;22;20371;-94
2021/09/15 10:45:25;;;;;;;35.53;26.35;;;19.90;99.90;;;;;;6304568;22;19950;-93
2021/09/15 10:48:09;;;;;;;33.03;24.75;;;19.90;99.90;;;;;;6276481;22;20026;-94
2021/09/15 10:51:30;;;;;;;34.33;25.17;;;19.90;99.90;;;;;;6250101;22;20042;-94
2021/09/15 10:54:56;;;;;;;37.70;27.60;;;19.90;99.90;;;;;;6229628;22;20011;-93
2021/09/15 10:57:36;;;;;;;37.53;26.45;;;20.00;99.90;;;;;;6256374;22;20077;-93
2021/09/15 11:00:15;;;;;;;31.48;26.58;;;20.00;99.90;;;;;;6249530;22;20145;-93
2021/09/15 11:02:50;;;;;;;34.42;25.85;;;20.10;99.90;;;;;;6249980;22;20019;-93
2021/09/15 11:05:28;;;;;;;34.67;26.85;;;20.10;99.90;;;;;;6250172;22;20019;-93
2021/09/15 11:07:54;;;;;;;32.33;26.45;;;20.20;99.90;;;;;;6249277;22;20348;-94
2021/09/15 11:10:38;;;;;;;32.85;25.98;;;20.20;99.90;;;;;;6250583;22;20017;-94
2021/09/15 11:13:17;;;;;;;34.55;26.83;;;20.20;99.90;;;;;;6250285;22;20042;-93
2021/09/15 11:15:48;;;;;;;31.33;26.20;;;20.20;99.90;;;;;;6250536;22;20484;-94
2021/09/15 11:18:20;;;;;;;33.90;26.55;;;20.20;99.90;;;;;;6256838;22;20050;-94
2021/09/15 11:20:55;;;;;;;36.83;27.88;;;20.20;99.90;;;;;;6310478;22;20023;-94
2021/09/15 11:23:30;;;;;;;34.95;27.70;;;20.20;99.90;;;;;;6308651;22;20011;-94
2021/09/15 11:26:11;;;;;;;37.20;28.35;;;20.20;99.90;;;;;;6309836;22;20529;-94
2021/09/15 11:28:54;;;;;;;36.15;28.42;;;20.30;99.90;;;;;;6310471;22;20015;-94
2021/09/15 11:31:20;;;;;;;38.95;28.48;;;20.30;99.90;;;;;;6310307;22;20520;-94
2021/09/15 11:33:45;;;;;;;34.50;28.58;;;20.30;99.90;;;;;;6258078;22;20042;-93
2021/09/15 11:36:27;;;;;;;35.35;28.23;;;20.30;99.90;;;;;;6335559;22;20019;-94
2021/09/15 11:39:06;;;;;;;;;;;;;;;;;;;;;
2021/09/15 11:41:53;;;;;;;40.47;28.67;;;20.40;99.90;;;;;;6338647;22;20015;-94
2021/09/15 11:44:42;;;;;;;35.13;28.58;;;20.40;99.90;;;;;;6288105;22;20014;-93
2021/09/15 11:47:30;;;;;;;42.55;29.75;;;20.50;99.90;;;;;;6307768;22;20054;-95
2021/09/15 11:50:16;;;;;;;37.67;29.23;;;20.50;99.90;;;;;;6287289;22;20014;-94
2021/09/15 11:52:48;;;;;;;39.45;29.30;;;20.60;99.90;;;;;;6310597;22;20451;-93
2021/09/15 11:55:16;;;;;;;38.30;29.80;;;20.70;99.90;;;;;;6283501;22;20011;-95
2021/09/15 11:58:02;;;;;;;37.05;29.52;;;20.70;99.90;;;;;;6280390;22;20093;-92
2021/09/15 12:00:48;;;;;;;37.35;31.02;;;20.80;99.90;;;;;;6307588;22;20018;-94
2021/09/15 12:03:34;;;;;;;38.03;30.75;;;21.00;99.90;;;;;;6331057;22;20091;-94
2021/09/15 12:13:55;;;;;;;37.78;29.92;;;21.40;99.90;;;;;;6342183;22;20097;-93
2021/09/15 12:16:28;;;;;;;37.33;28.55;;;21.50;99.90;;;;;;6293956;22;20066;-94
2021/09/15 12:19:08;;;;;;;;;;;;;;;;;;;;;
2021/09/15 12:21:56;;;;;;;58.00;40.13;;;21.30;99.90;;;;;;6312930;22;20597;-93
2021/09/15 12:24:23;;;;;;;65.95;41.22;;;21.20;99.90;;;;;;6284005;22;20029;-93
2021/09/15 12:26:49;;;;;;;62.22;40.92;;;21.10;99.90;;;;;;6309384;22;20068;-91
2021/09/15 12:29:29;;;;;;;61.15;42.25;;;21.00;99.90;;;;;;6338555;22;20015;-93
